Time;durP1;ratioP1;P1;durP2;ratioP2;P2;SDS_P1;SDS_P2;PMS_P1;PMS_P2;Temp;Humidity;BMP_temperature;BMP_pressure;BME280_temperature;BME280_humidity;BME280_pressure;Samples;Min_cycle;Max_cycle;Signal;HPM_P1;HPM_P2
2022/12/23 00:01:49;;;;;;;45.00;21.20;;;;;;;8.99;100.00;100174.22;5265565;28;20029;-76
2022/12/23 00:04:21;;;;;;;34.37;20.83;;;;;;;9.01;100.00;100175.88;5264977;28;20055;-76
2022/12/23 00:06:52;;;;;;;34.53;22.73;;;;;;;8.99;100.00;100180.25;5264968;28;20055;-75
2022/12/23 00:09:23;;;;;;;36.70;21.97;;;;;;;9.01;100.00;100178.47;5263797;28;20463;-77
2022/12/23 00:17:44;;;;;;;42.97;25.40;;;;;;;8.98;100.00;100194.13;5265140;28;20434;-75
2022/12/23 00:20:16;;;;;;;45.00;27.15;;;;;;;9.00;100.00;100187.19;5265249;28;20035;-77
2022/12/23 00:23:06;;;;;;;41.60;27.90;;;;;;;9.03;100.00;100196.66;5264639;28;20025;-74
2022/12/23 00:25:41;;;;;;;42.78;27.77;;;;;;;8.99;100.00;100187.22;5264138;28;20044;-75
2022/12/23 00:28:17;;;;;;;43.97;30.45;;;;;;;9.02;100.00;100188.00;5265049;28;20037;-76
2022/12/23 00:30:54;;;;;;;46.70;29.73;;;;;;;9.02;100.00;100194.97;5264666;28;20361;-76
2022/12/23 00:33:38;;;;;;;41.80;29.52;;;;;;;9.01;100.00;100199.28;5264418;28;20028;-75
2022/12/23 00:36:11;;;;;;;46.33;30.35;;;;;;;9.00;100.00;100196.72;5264147;28;20108;-76
2022/12/23 00:44:24;;;;;;;48.10;29.05;;;;;;;9.00;100.00;100207.09;5264806;28;20128;-75
2022/12/23 00:46:55;;;;;;;48.07;28.53;;;;;;;9.00;100.00;100212.31;5262873;28;20123;-75
2022/12/23 00:52:27;;;;;;;48.75;30.50;;;;;;;8.97;100.00;100217.56;5250284;28;20049;-76
2022/12/23 00:54:58;;;;;;;47.80;28.77;;;;;;;8.97;100.00;100223.63;5264593;28;20379;-75
2022/12/23 00:57:30;;;;;;;44.97;28.03;;;;;;;8.98;100.00;100234.88;5263558;28;20029;-75
2022/12/23 01:00:01;;;;;;;42.93;28.50;;;;;;;8.99;100.00;100231.41;5263051;28;20119;-77
2022/12/23 01:05:37;;;;;;;49.15;30.48;;;;;;;8.97;100.00;100235.75;5264118;28;20376;-75
2022/12/23 01:08:10;;;;;;;47.55;30.27;;;;;;;8.97;100.00;100238.34;5264218;28;20051;-76
2022/12/23 01:10:42;;;;;;;49.28;30.23;;;;;;;9.02;100.00;100246.97;5263692;28;20415;-76
2022/12/23 01:13:13;;;;;;;46.00;29.60;;;;;;;8.99;100.00;100247.84;5263889;28;20036;-74
2022/12/23 01:15:45;;;;;;;41.57;29.93;;;;;;;8.97;100.00;100239.22;5263571;28;20025;-76
2022/12/23 01:18:16;;;;;;;48.63;31.47;;;;;;;9.00;100.00;100246.09;5262776;28;20033;-76
2022/12/23 01:20:48;;;;;;;46.80;28.30;;;;;;;9.03;100.00;100246.94;5264064;28;20122;-74
2022/12/23 01:23:19;;;;;;;43.53;29.53;;;;;;;9.02;100.00;100242.59;5263401;28;20040;-75
2022/12/23 01:25:58;;;;;;;49.93;30.67;;;;;;;8.98;100.00;100237.47;5262552;28;20061;-76
2022/12/23 01:28:31;;;;;;;50.42;31.08;;;;;;;8.98;100.00;100242.69;5262122;28;20136;-74
2022/12/23 01:31:05;;;;;;;46.05;31.25;;;;;;;8.99;100.00;100247.00;5263624;28;20461;-73
2022/12/23 01:33:36;;;;;;;53.40;32.03;;;;;;;8.94;100.00;100236.66;5262851;28;20120;-73
2022/12/23 01:36:09;;;;;;;57.70;32.17;;;;;;;8.93;100.00;100240.13;5263103;28;20116;-74
2022/12/23 01:38:41;;;;;;;49.97;32.70;;;;;;;8.94;100.00;100247.91;5263084;28;20124;-74
2022/12/23 01:42:42;;;;;;;54.03;32.80;;;;;;;8.93;100.00;100242.75;5262799;28;20120;-75
2022/12/23 01:44:46;;;;;;;59.92;35.75;;;;;;;8.97;100.00;100248.75;5263499;28;20479;-75
2022/12/23 01:47:37;;;;;;;46.70;33.08;;;;;;;8.96;100.00;100253.09;5262921;28;20039;-75
2022/12/23 01:50:21;;;;;;;50.72;33.33;;;;;;;8.98;100.00;100256.53;5262575;28;20471;-76
2022/12/23 01:53:00;;;;;;;53.30;34.95;;;;;;;8.92;100.00;100262.69;5262897;28;20032;-74
2022/12/23 01:55:45;;;;;;;54.55;33.47;;;;;;;8.94;100.00;100263.50;5260970;28;20064;-75
2022/12/23 01:58:21;;;;;;;59.40;36.67;;;;;;;8.93;100.00;100272.22;5263272;28;20032;-76
2022/12/23 02:03:48;;;;;;;58.80;37.10;;;;;;;8.93;100.00;100274.81;5263362;28;20037;-75
2022/12/23 02:09:25;;;;;;;55.88;36.08;;;;;;;8.91;100.00;100281.75;5262356;28;20132;-74
2022/12/23 02:12:24;;;;;;;52.85;36.65;;;;;;;8.97;100.00;100292.94;5262578;28;20036;-76
2022/12/23 02:18:37;;;;;;;49.05;35.35;;;;;;;8.96;100.00;100286.88;5262602;28;20064;-75
2022/12/23 02:21:18;;;;;;;50.58;35.33;;;;;;;8.93;100.00;100287.81;5257372;28;20072;-76
2022/12/23 02:24:07;;;;;;;50.80;34.38;;;;;;;8.91;100.00;100280.91;5262445;28;20029;-77
2022/12/23 02:26:57;;;;;;;51.58;34.28;;;;;;;8.92;100.00;100285.22;5262380;28;20029;-76
2022/12/23 02:29:49;;;;;;;43.60;31.60;;;;;;;8.90;100.00;100280.06;5262516;28;20080;-76
2022/12/23 02:32:23;;;;;;;46.97;32.20;;;;;;;8.91;100.00;100304.28;5262522;28;20040;-76
2022/12/23 02:34:58;;;;;;;41.65;32.58;;;;;;;8.92;100.00;100301.69;5262136;28;20361;-76
2022/12/23 02:38:02;;;;;;;44.70;30.75;;;;;;;8.91;100.00;100312.09;5261170;28;20037;-76
2022/12/23 02:40:58;;;;;;;44.80;31.38;;;;;;;8.97;100.00;100325.00;5261635;28;20037;-75
2022/12/23 02:43:40;;;;;;;43.65;30.63;;;;;;;8.94;100.00;100328.50;5262382;28;20082;-76
2022/12/23 02:46:29;;;;;;;47.13;30.05;;;;;;;8.97;100.00;100342.31;5262337;28;20460;-75
2022/12/23 02:49:35;;;;;;;45.22;32.03;;;;;;;8.94;100.00;100351.91;5262427;28;20043;-75
2022/12/23 02:52:12;;;;;;;46.58;30.77;;;;;;;8.94;100.00;100349.28;5239717;28;20041;-74
2022/12/23 02:54:49;;;;;;;41.45;31.38;;;;;;;8.91;100.00;100340.69;5262201;28;20041;-74
2022/12/23 02:57:28;;;;;;;45.60;29.83;;;;;;;8.93;100.00;100357.13;5262968;28;20045;-74
2022/12/23 03:00:02;;;;;;;40.38;28.40;;;;;;;8.91;100.00;100354.53;5262212;28;20029;-75
2022/12/23 03:02:36;;;;;;;38.50;28.33;;;;;;;8.89;100.00;100347.66;5261787;28;20036;-74
2022/12/23 03:05:32;;;;;;;39.55;27.10;;;;;;;8.94;100.00;100356.25;5262141;28;20120;-75
2022/12/23 03:08:06;;;;;;;40.47;27.83;;;;;;;8.88;100.00;100344.16;5261909;28;20096;-75
2022/12/23 03:10:38;;;;;;;42.53;27.77;;;;;;;8.90;100.00;100351.94;5261730;28;20040;-75
2022/12/23 03:13:15;;;;;;;40.47;27.90;;;;;;;8.89;100.00;100361.50;5261864;28;20128;-75
2022/12/23 03:16:10;;;;;;;37.17;26.23;;;;;;;8.90;100.00;100358.03;5261830;28;20036;-75
2022/12/23 03:19:03;;;;;;;42.55;28.50;;;;;;;8.88;100.00;100354.56;5262034;28;20033;-75
2022/12/23 03:21:54;;;;;;;43.53;27.40;;;;;;;8.90;100.00;100357.16;5263244;28;20471;-75
2022/12/23 03:25:01;;;;;;;41.55;27.02;;;;;;;8.89;100.00;100356.31;5265865;28;20037;-74
2022/12/23 03:27:45;;;;;;;41.17;26.83;;;;;;;8.92;100.00;100347.63;5265984;28;20029;-74
2022/12/23 03:30:19;;;;;;;43.10;27.50;;;;;;;8.86;100.00;100348.53;5265944;28;20112;-75
2022/12/23 03:32:59;;;;;;;42.33;28.02;;;;;;;8.86;100.00;100345.94;5265610;28;20057;-75
2022/12/23 03:35:46;;;;;;;41.80;27.35;;;;;;;8.85;100.00;100333.81;5266102;28;20389;-75
2022/12/23 03:38:18;;;;;;;43.60;28.70;;;;;;;8.86;100.00;100345.94;5265409;28;20025;-77
2022/12/23 03:40:58;;;;;;;51.13;28.40;;;;;;;8.87;100.00;100349.38;5265210;28;20463;-77
2022/12/23 03:43:38;;;;;;;37.50;26.58;;;;;;;8.84;100.00;100352.03;5265438;28;20104;-76
2022/12/23 03:46:16;;;;;;;43.83;26.88;;;;;;;8.84;100.00;100344.22;5265498;28;20025;-76
2022/12/23 03:48:52;;;;;;;46.92;29.20;;;;;;;8.83;100.00;100334.72;5265789;28;20355;-76
2022/12/23 03:51:44;;;;;;;44.92;27.75;;;;;;;8.81;100.00;100350.34;5265784;28;20146;-80
2022/12/23 03:54:23;;;;;;;45.50;28.67;;;;;;;8.79;100.00;100346.03;5265869;28;20356;-77
2022/12/23 03:57:03;;;;;;;43.95;27.38;;;;;;;8.76;100.00;100346.94;5264955;28;20134;-77
2022/12/23 03:59:38;;;;;;;44.33;27.23;;;;;;;8.82;100.00;100348.59;5265074;28;20049;-76
2022/12/23 04:02:27;;;;;;;51.88;29.38;;;;;;;8.78;100.00;100357.31;5264791;28;20419;-75
2022/12/23 04:05:28;;;;;;;49.78;31.58;;;;;;;8.80;100.00;100358.16;5264308;28;20083;-74
2022/12/23 04:08:12;;;;;;;45.42;28.13;;;;;;;8.78;100.00;100362.53;5265069;28;20045;-74
2022/12/23 04:10:44;;;;;;;55.63;31.17;;;;;;;8.73;100.00;100358.22;5264909;28;20107;-76
2022/12/23 04:13:15;;;;;;;52.67;31.63;;;;;;;8.73;100.00;100363.41;5265261;28;20037;-75
2022/12/23 04:15:47;;;;;;;54.43;32.70;;;;;;;8.75;100.00;100372.06;5264987;28;20468;-74
2022/12/23 04:18:18;;;;;;;61.13;34.07;;;;;;;8.74;100.00;100372.06;5264833;28;20480;-74
2022/12/23 04:20:50;;;;;;;54.47;31.40;;;;;;;8.73;100.00;100379.00;5264643;28;20112;-74
2022/12/23 04:23:21;;;;;;;53.83;31.43;;;;;;;8.70;100.00;100370.41;5264630;28;20025;-74
2022/12/23 04:25:52;;;;;;;51.90;31.73;;;;;;;8.73;100.00;100378.16;5264641;28;20112;-74
2022/12/23 04:28:24;;;;;;;52.70;30.03;;;;;;;8.72;100.00;100384.22;5264563;28;20033;-74
2022/12/23 04:30:55;;;;;;;53.53;29.80;;;;;;;8.71;100.00;100391.19;5264393;28;20040;-74
2022/12/23 04:33:27;;;;;;;52.17;31.67;;;;;;;8.71;100.00;100395.50;5263121;28;20083;-75
2022/12/23 04:35:59;;;;;;;50.77;30.37;;;;;;;8.69;100.00;100400.69;5264769;28;20027;-75
2022/12/23 04:38:31;;;;;;;;;;;;;;;8.72;100.00;100405.03;5265263;28;20378;-75
2022/12/23 04:41:02;;;;;;;46.03;28.05;;;;;;;8.71;100.00;100392.88;5263249;28;19916;-74
2022/12/23 04:43:33;;;;;;;47.70;30.60;;;;;;;8.70;100.00;100391.19;5264738;28;20064;-74
2022/12/23 04:46:05;;;;;;;50.47;31.47;;;;;;;8.67;100.00;100388.63;5263882;28;20029;-75
2022/12/23 04:48:36;;;;;;;50.47;31.10;;;;;;;8.66;100.00;100389.50;5264158;28;20082;-75
2022/12/23 04:51:07;;;;;;;51.50;31.00;;;;;;;8.63;100.00;100382.59;5264038;28;20487;-74
2022/12/23 04:53:39;;;;;;;46.27;30.33;;;;;;;8.69;100.00;100384.25;5264027;28;20029;-74
2022/12/23 04:56:10;;;;;;;53.87;31.57;;;;;;;8.70;100.00;100380.81;5264350;28;20049;-74
2022/12/23 04:58:41;;;;;;;49.40;31.20;;;;;;;8.64;100.00;100373.06;5262640;28;20384;-74
2022/12/23 05:01:13;;;;;;;56.57;31.40;;;;;;;8.65;100.00;100373.06;5264082;28;20504;-75
2022/12/23 05:03:45;;;;;;;53.77;30.03;;;;;;;8.64;100.00;100371.31;5263615;28;20037;-75
2022/12/23 05:06:16;;;;;;;56.33;31.27;;;;;;;8.63;100.00;100367.03;5263771;28;20033;-77
2022/12/23 05:08:47;;;;;;;57.20;31.67;;;;;;;8.62;100.00;100365.28;5263831;28;20395;-75
2022/12/23 05:11:19;;;;;;;52.67;28.50;;;;;;;8.64;100.00;100371.31;5263822;28;20032;-75
2022/12/23 05:13:50;;;;;;;52.43;28.00;;;;;;;8.63;100.00;100371.34;5263278;28;20104;-75
2022/12/23 05:16:22;;;;;;;49.77;27.60;;;;;;;8.64;100.00;100375.66;5263810;28;20032;-75
2022/12/23 05:18:53;;;;;;;48.83;27.97;;;;;;;8.62;100.00;100380.03;5263829;28;20032;-75
2022/12/23 05:21:24;;;;;;;47.37;27.87;;;;;;;8.64;100.00;100388.66;5263455;28;20044;-76
2022/12/23 05:23:56;;;;;;;52.67;28.07;;;;;;;8.62;100.00;100388.66;5263625;28;20029;-75
2022/12/23 05:26:27;;;;;;;49.90;28.33;;;;;;;8.63;100.00;100403.41;5263332;28;20021;-75
2022/12/23 05:28:59;;;;;;;54.63;30.13;;;;;;;8.66;100.00;100408.56;5263421;28;20033;-75
2022/12/23 05:31:30;;;;;;;54.73;29.60;;;;;;;8.66;100.00;100413.75;5263625;28;20041;-75
2022/12/23 05:34:02;;;;;;;50.60;29.80;;;;;;;8.67;100.00;100417.22;5263186;28;20392;-75
2022/12/23 05:36:33;;;;;;;49.57;28.67;;;;;;;8.65;100.00;100414.63;5262107;28;20501;-74
2022/12/23 05:39:06;;;;;;;51.87;31.40;;;;;;;8.66;100.00;100421.56;5261745;28;20039;-75
2022/12/23 05:41:37;;;;;;;53.13;31.83;;;;;;;8.65;100.00;100414.63;5263051;28;20352;-75
2022/12/23 05:44:08;;;;;;;51.80;28.93;;;;;;;8.66;100.00;100429.34;5262640;28;20068;-76
2022/12/23 05:46:40;;;;;;;47.53;29.93;;;;;;;8.67;100.00;100436.25;5261467;28;20033;-76
2022/12/23 05:49:11;;;;;;;54.73;30.77;;;;;;;8.67;100.00;100425.00;5262889;28;20082;-76
2022/12/23 05:51:43;;;;;;;51.20;30.93;;;;;;;8.65;100.00;100421.56;5263428;28;20059;-76
2022/12/23 05:54:14;;;;;;;54.00;31.20;;;;;;;8.66;100.00;100413.75;5262769;28;20040;-75
2022/12/23 05:56:45;;;;;;;53.17;30.60;;;;;;;8.68;100.00;100411.16;5262882;28;20135;-75
2022/12/23 05:59:17;;;;;;;54.57;31.60;;;;;;;8.69;100.00;100405.06;5262625;28;20072;-75
2022/12/23 06:01:48;;;;;;;53.53;31.17;;;;;;;8.66;100.00;100395.56;5262818;28;20047;-75
2022/12/23 06:04:19;;;;;;;53.83;32.57;;;;;;;8.68;100.00;100398.16;5262844;28;20060;-75
2022/12/23 06:06:51;;;;;;;61.83;34.47;;;;;;;8.69;100.00;100394.66;5262604;28;20052;-73
2022/12/23 06:09:22;;;;;;;62.83;33.10;;;;;;;8.67;100.00;100392.06;5262648;28;20480;-72
2022/12/23 06:11:53;;;;;;;64.83;35.70;;;;;;;8.67;100.00;100392.06;5262873;28;20472;-72
2022/12/23 06:14:25;;;;;;;70.67;37.27;;;;;;;8.66;100.00;100379.97;5262245;28;20510;-72
2022/12/23 06:16:56;;;;;;;58.60;37.67;;;;;;;8.67;100.00;100388.63;5260945;28;20029;-72
2022/12/23 06:19:28;;;;;;;68.37;39.00;;;;;;;8.67;100.00;100378.22;5262239;28;20364;-72
2022/12/23 06:21:59;;;;;;;62.27;38.93;;;;;;;8.65;100.00;100373.06;5262851;28;20033;-71
2022/12/23 06:24:30;;;;;;;61.87;38.93;;;;;;;8.66;100.00;100374.78;5262954;28;20071;-72
2022/12/23 06:27:02;;;;;;;68.23;39.00;;;;;;;8.64;100.00;100371.31;5262837;28;20029;-72
2022/12/23 06:29:33;;;;;;;66.13;39.03;;;;;;;8.65;100.00;100373.06;5262439;28;20142;-72
2022/12/23 06:32:05;;;;;;;72.77;41.37;;;;;;;8.65;100.00;100374.81;5262338;28;20025;-72
2022/12/23 06:34:36;;;;;;;66.97;40.63;;;;;;;8.66;100.00;100386.91;5262258;28;20060;-73
2022/12/23 06:37:07;;;;;;;76.43;41.67;;;;;;;8.66;100.00;100390.38;5262275;28;20067;-73
2022/12/23 06:39:39;;;;;;;71.30;41.47;;;;;;;8.66;100.00;100387.78;5262217;28;20033;-73
2022/12/23 06:42:10;;;;;;;68.47;42.73;;;;;;;8.64;100.00;100392.09;5262090;28;20132;-76
2022/12/23 06:44:42;;;;;;;64.67;41.23;;;;;;;8.69;100.00;100397.25;5262079;28;20037;-75
2022/12/23 06:47:13;;;;;;;73.73;40.90;;;;;;;8.66;100.00;100392.09;5261089;28;20047;-74
2022/12/23 06:49:44;;;;;;;67.67;40.40;;;;;;;8.68;100.00;100409.41;5262400;28;20388;-73
2022/12/23 06:52:16;;;;;;;66.97;39.63;;;;;;;8.69;100.00;100415.44;5262316;28;20112;-75
2022/12/23 06:54:47;;;;;;;67.03;40.40;;;;;;;8.64;100.00;100410.28;5262069;28;20023;-73
2022/12/23 06:57:19;;;;;;;74.83;41.53;;;;;;;8.69;100.00;100420.66;5264540;28;20127;-73
2022/12/23 06:59:50;;;;;;;75.60;42.00;;;;;;;8.69;100.00;100437.09;5266230;28;20033;-72
2022/12/23 07:02:21;;;;;;;70.03;42.10;;;;;;;8.69;100.00;100444.88;5266426;28;20040;-73
2022/12/23 07:04:53;;;;;;;74.03;43.03;;;;;;;8.68;100.00;100444.94;5266199;28;20047;-73
2022/12/23 07:07:24;;;;;;;73.43;42.97;;;;;;;8.66;100.00;100447.53;5266033;28;20033;-73
2022/12/23 07:09:56;;;;;;;74.40;43.20;;;;;;;8.68;100.00;100463.13;5266328;28;20116;-73
2022/12/23 07:12:27;;;;;;;77.63;44.27;;;;;;;8.70;100.00;100463.94;5266423;28;20036;-73
2022/12/23 07:14:58;;;;;;;72.77;43.23;;;;;;;8.66;100.00;100451.84;5266940;28;20029;-73
2022/12/23 07:17:31;;;;;;;74.33;43.23;;;;;;;8.67;100.00;100441.44;5265628;28;20606;-72
2022/12/23 07:20:02;;;;;;;72.03;42.78;;;;;;;8.67;100.00;100441.44;5266303;28;20033;-77
2022/12/23 07:22:34;;;;;;;77.37;43.17;;;;;;;8.66;100.00;100426.75;5266306;28;20063;-73
2022/12/23 07:25:06;;;;;;;70.90;42.80;;;;;;;8.65;100.00;100430.22;5265318;28;20053;-78
2022/12/23 07:27:37;;;;;;;71.80;42.35;;;;;;;8.67;100.00;100427.59;5265708;28;20468;-74
2022/12/23 07:30:09;;;;;;;75.33;43.30;;;;;;;8.69;100.00;100431.03;5265694;28;20478;-77
2022/12/23 07:32:40;;;;;;;71.97;42.53;;;;;;;8.69;100.00;100436.22;5265320;28;20477;-73
2022/12/23 07:35:12;;;;;;;72.07;41.93;;;;;;;8.68;100.00;100437.97;5265291;28;20508;-73
2022/12/23 07:37:43;;;;;;;71.83;40.60;;;;;;;8.69;100.00;100431.88;5265396;28;20032;-74
2022/12/23 07:40:15;;;;;;;76.87;42.57;;;;;;;8.71;100.00;100431.88;5263938;28;20029;-74
2022/12/23 07:42:53;;;;;;;72.13;42.03;;;;;;;8.72;100.00;100431.84;5264156;28;20120;-73
2022/12/23 07:45:26;;;;;;;78.32;41.85;;;;;;;8.68;100.00;100430.19;5264985;28;20033;-74
2022/12/23 07:47:59;;;;;;;78.72;43.50;;;;;;;8.66;100.00;100418.06;5265364;28;20364;-74
2022/12/23 07:50:31;;;;;;;81.00;40.83;;;;;;;8.68;100.00;100424.13;5265591;28;20032;-73
2022/12/23 07:53:02;;;;;;;81.90;44.70;;;;;;;8.64;100.00;100431.09;5263386;28;20451;-74
2022/12/23 07:55:34;;;;;;;76.93;42.30;;;;;;;8.63;100.00;100433.69;5263278;28;20056;-74
2022/12/23 07:58:06;;;;;;;79.00;42.10;;;;;;;8.58;100.00;100425.94;5263696;28;20439;-71
2022/12/23 08:00:37;;;;;;;67.73;40.27;;;;;;;8.60;100.00;100416.41;5263628;28;20122;-71
2022/12/23 08:03:10;;;;;;;75.13;39.17;;;;;;;8.56;100.00;100431.19;5263173;28;20029;-71
2022/12/23 08:05:42;;;;;;;66.97;37.53;;;;;;;8.60;100.00;100434.59;5263313;28;20029;-72
2022/12/23 08:08:13;;;;;;;68.53;38.30;;;;;;;8.58;100.00;100412.94;5263396;28;20036;-72
2022/12/23 08:10:44;;;;;;;74.37;37.90;;;;;;;8.57;100.00;100406.91;5263085;28;20029;-71
2022/12/23 08:13:16;;;;;;;63.03;35.90;;;;;;;8.60;100.00;100407.75;5261885;28;20037;-75
2022/12/23 08:15:47;;;;;;;66.13;35.37;;;;;;;8.57;100.00;100406.06;5263737;28;20116;-76
2022/12/23 08:18:18;;;;;;;62.93;36.00;;;;;;;8.57;100.00;100395.66;5262573;28;20106;-73
2022/12/23 08:20:54;;;;;;;53.60;34.03;;;;;;;8.60;100.00;100406.03;5262846;28;20403;-73
2022/12/23 08:23:27;;;;;;;55.08;32.72;;;;;;;8.61;100.00;100410.31;5262850;28;20025;-72
2022/12/23 08:26:03;;;;;;;58.70;34.13;;;;;;;8.62;100.00;100422.44;5262893;28;20419;-73
2022/12/23 08:28:36;;;;;;;53.80;33.88;;;;;;;8.61;100.00;100418.13;5263321;28;20027;-73
2022/12/23 08:31:12;;;;;;;;;;;;;;;8.75;100.00;100418.84;5262657;28;20075;-72
2022/12/23 08:33:46;;;;;;;50.20;29.75;;;;;;;8.62;100.00;100411.22;5263004;28;19909;-72
2022/12/23 08:36:21;;;;;;;49.25;30.95;;;;;;;8.64;100.00;100428.47;5262409;28;20036;-73
2022/12/23 08:38:54;;;;;;;50.90;28.02;;;;;;;8.63;100.00;100418.09;5262639;28;20115;-73
2022/12/23 08:41:32;;;;;;;47.88;25.77;;;;;;;8.64;100.00;100412.88;5263188;28;20029;-76
2022/12/23 08:44:05;;;;;;;43.05;25.02;;;;;;;8.62;100.00;100404.25;5262987;28;20044;-73
2022/12/23 08:46:37;;;;;;;46.65;25.90;;;;;;;8.63;100.00;100402.50;5262437;28;20063;-73
2022/12/23 08:49:09;;;;;;;41.40;25.73;;;;;;;8.63;100.00;100394.72;5262918;28;20457;-73
2022/12/23 08:51:41;;;;;;;41.67;25.00;;;;;;;8.65;100.00;100387.78;5262766;28;20083;-75
2022/12/23 08:54:12;;;;;;;48.13;26.20;;;;;;;8.63;100.00;100385.22;5262470;28;20113;-73
2022/12/23 08:56:44;;;;;;;39.37;24.67;;;;;;;8.66;100.00;100389.50;5223048;28;1144503;-72
2022/12/23 08:59:16;;;;;;;40.70;25.17;;;;;;;8.67;100.00;100389.47;5263309;28;20037;-73
2022/12/23 09:01:47;;;;;;;40.35;23.88;;;;;;;8.66;100.00;100390.38;5262997;28;20025;-74
2022/12/23 09:04:18;;;;;;;38.63;24.67;;;;;;;8.67;100.00;100380.84;5263829;28;20033;-74
2022/12/23 09:06:50;;;;;;;37.00;23.07;;;;;;;8.67;100.00;100373.88;5262998;28;20057;-72
2022/12/23 09:09:21;;;;;;;37.07;21.93;;;;;;;8.67;100.00;100362.63;5263436;28;20025;-73
2022/12/23 09:11:53;;;;;;;36.63;21.20;;;;;;;8.64;100.00;100358.31;5262030;28;20465;-77
2022/12/23 09:14:24;;;;;;;30.53;21.33;;;;;;;8.62;100.00;100349.69;5263213;28;20033;-71
2022/12/23 09:16:55;;;;;;;41.70;20.90;;;;;;;8.63;100.00;100355.75;5261258;28;20090;-74
2022/12/23 09:19:27;;;;;;;38.10;22.37;;;;;;;8.64;100.00;100352.28;5262364;28;20033;-74
2022/12/23 09:21:58;;;;;;;36.67;20.53;;;;;;;8.66;100.00;100342.72;5263437;28;20511;-81
2022/12/23 09:24:30;;;;;;;35.13;19.50;;;;;;;8.65;100.00;100328.03;5263288;28;20048;-73
2022/12/23 09:27:01;;;;;;;31.00;18.73;;;;;;;8.66;100.00;100333.22;5263065;28;20033;-71
2022/12/23 09:29:32;;;;;;;36.00;18.80;;;;;;;8.69;100.00;100329.69;5262743;28;20179;-71
2022/12/23 09:32:04;;;;;;;32.07;20.47;;;;;;;8.71;100.00;100333.13;5261622;28;20033;-71
2022/12/23 09:34:35;;;;;;;33.57;18.60;;;;;;;8.71;100.00;100335.72;5263133;28;20379;-72
2022/12/23 09:37:06;;;;;;;33.43;17.97;;;;;;;8.73;100.00;100332.25;5262175;28;20083;-71
2022/12/23 09:39:38;;;;;;;28.53;16.93;;;;;;;8.73;100.00;100321.84;5262576;28;20025;-72
2022/12/23 09:42:48;;;;;;;31.37;17.93;;;;;;;8.74;100.00;100333.09;5245044;28;20108;-72
2022/12/23 09:45:59;;;;;;;25.90;15.23;;;;;;;8.76;100.00;100324.41;5218475;28;20029;-70
2022/12/23 09:48:37;;;;;;;27.55;14.63;;;;;;;8.74;100.00;100314.91;5240865;28;20045;-70
2022/12/23 09:51:10;;;;;;;26.55;13.77;;;;;;;8.73;100.00;100306.25;5262126;28;20392;-70
2022/12/23 09:53:53;;;;;;;24.20;14.90;;;;;;;8.79;100.00;100301.84;5262960;28;20032;-68
2022/12/23 09:56:51;;;;;;;27.15;14.38;;;;;;;8.80;100.00;100308.78;5262844;28;20045;-68
2022/12/23 09:59:50;;;;;;;23.58;13.25;;;;;;;8.84;100.00;100321.72;5263079;28;20060;-67
2022/12/23 10:02:29;;;;;;;29.17;14.95;;;;;;;8.83;100.00;100316.53;5261032;28;20104;-68
2022/12/23 10:05:10;;;;;;;26.45;13.93;;;;;;;8.87;100.00;100318.19;5262522;28;20055;-74
2022/12/23 10:07:44;;;;;;;19.48;13.45;;;;;;;8.88;100.00;100322.53;5262205;28;20039;-69
2022/12/23 10:10:28;;;;;;;22.30;14.90;;;;;;;8.84;100.00;100316.53;5262052;28;20565;-68
2022/12/23 10:13:03;;;;;;;25.83;15.32;;;;;;;8.81;100.00;100300.97;5263020;28;20419;-69
2022/12/23 10:15:42;;;;;;;27.25;16.92;;;;;;;8.79;100.00;100294.94;5262412;28;20411;-69
2022/12/23 10:18:31;;;;;;;25.45;15.68;;;;;;;8.79;100.00;100288.84;5262280;28;20031;-68
2022/12/23 10:21:09;;;;;;;25.08;15.57;;;;;;;8.83;100.00;100280.16;5262464;28;20467;-68
2022/12/23 10:23:45;;;;;;;27.33;16.00;;;;;;;8.85;100.00;100273.19;5261813;28;20024;-68
2022/12/23 10:26:33;;;;;;;24.83;14.60;;;;;;;8.88;100.00;100270.53;5262329;28;20036;-70
2022/12/23 10:29:16;;;;;;;26.08;14.35;;;;;;;8.92;100.00;100254.03;5261724;28;20044;-69
2022/12/23 10:32:10;;;;;;;23.92;14.73;;;;;;;9.04;100.00;100258.19;5262108;28;20033;-69
2022/12/23 10:35:14;;;;;;;24.92;14.73;;;;;;;9.04;100.00;100258.19;5240784;28;20037;-71
2022/12/23 10:38:01;;;;;;;23.80;14.32;;;;;;;9.12;100.00;100238.97;5261006;28;20104;-69
2022/12/23 10:40:32;;;;;;;23.83;13.68;;;;;;;9.17;100.00;100240.66;5261660;28;20027;-68
2022/12/23 10:43:30;;;;;;;24.67;13.40;;;;;;;9.25;100.00;100236.19;5261849;28;20033;-69
2022/12/23 10:46:33;;;;;;;18.65;12.57;;;;;;;9.24;100.00;100237.94;5262028;28;20036;-69
2022/12/23 10:49:12;;;;;;;21.05;12.18;;;;;;;9.22;100.00;100231.03;5261306;28;20059;-68
2022/12/23 10:51:46;;;;;;;20.60;12.20;;;;;;;9.17;100.00;100225.06;5261727;28;20029;-69
2022/12/23 10:54:34;;;;;;;23.02;12.40;;;;;;;9.14;100.00;100210.34;5261562;28;20029;-68
2022/12/23 10:57:07;;;;;;;20.33;12.25;;;;;;;9.04;100.00;100199.25;5261488;28;20461;-68
2022/12/23 10:59:38;;;;;;;17.70;11.07;;;;;;;9.04;100.00;100204.44;5261544;28;20063;-68
2022/12/23 11:02:13;;;;;;;18.20;10.47;;;;;;;9.05;100.00;100195.75;5261039;28;20045;-68
2022/12/23 11:04:46;;;;;;;18.20;10.93;;;;;;;9.07;100.00;100187.94;5261441;28;20037;-68
2022/12/23 11:07:26;;;;;;;19.80;10.52;;;;;;;9.08;100.00;100180.13;5261122;28;20029;-68
2022/12/23 11:10:05;;;;;;;26.40;10.93;;;;;;;9.08;100.00;100168.84;5261233;28;20106;-69
2022/12/23 11:12:41;;;;;;;17.27;9.88;;;;;;;9.08;100.00;100161.91;5261406;28;20464;-68
2022/12/23 11:15:37;;;;;;;19.27;10.30;;;;;;;9.11;100.00;100164.47;5261616;28;20024;-68
2022/12/23 11:18:11;;;;;;;23.95;11.15;;;;;;;9.09;100.00;100162.78;5260301;28;20032;-69
2022/12/23 11:20:45;;;;;;;17.80;11.25;;;;;;;9.04;100.00;100170.63;5260992;28;20534;-69
2022/12/23 11:23:25;;;;;;;18.55;9.93;;;;;;;9.00;100.00;100160.31;5261199;28;20067;-70
2022/12/23 11:26:08;;;;;;;19.67;11.02;;;;;;;8.93;100.00;100163.03;5260541;28;20033;-69
2022/12/23 11:28:48;;;;;;;21.27;9.82;;;;;;;8.89;100.00;100157.91;5261090;28;20095;-68
2022/12/23 11:31:31;;;;;;;17.88;9.70;;;;;;;8.85;100.00;100151.88;5261711;28;20025;-69
2022/12/23 11:34:21;;;;;;;18.90;10.90;;;;;;;8.85;100.00;100131.09;5261292;28;20033;-69
2022/12/23 11:36:58;;;;;;;21.55;10.93;;;;;;;8.80;100.00;100125.09;5261563;28;20111;-69
2022/12/23 11:39:32;;;;;;;19.95;9.95;;;;;;;8.82;100.00;100136.31;5261031;28;20025;-69
2022/12/23 11:42:28;;;;;;;23.50;10.73;;;;;;;8.82;100.00;100130.28;5261060;28;20380;-68
2022/12/23 11:44:59;;;;;;;17.05;10.57;;;;;;;8.72;100.00;100114.84;5265046;28;20091;-69
2022/12/23 11:47:39;;;;;;;17.33;9.77;;;;;;;8.76;100.00;100110.47;5264750;28;20479;-68
2022/12/23 11:50:27;;;;;;;20.80;10.88;;;;;;;8.75;100.00;100104.38;5265632;28;20404;-68
2022/12/23 11:53:13;;;;;;;21.20;10.85;;;;;;;8.74;100.00;100096.63;5263554;28;20040;-68
2022/12/23 11:55:57;;;;;;;29.02;10.43;;;;;;;8.70;100.00;100094.97;5264554;28;20116;-67
2022/12/23 11:58:32;;;;;;;18.40;10.05;;;;;;;8.66;100.00;100082.91;5264488;28;20496;-67
2022/12/23 12:01:16;;;;;;;16.67;10.25;;;;;;;8.70;100.00;100071.59;5263610;28;20037;-68
2022/12/23 12:04:02;;;;;;;19.02;9.50;;;;;;;8.67;100.00;100067.28;5264952;28;20099;-68
2022/12/23 12:06:34;;;;;;;19.35;10.15;;;;;;;8.66;100.00;100050.00;5263206;28;20032;-67
2022/12/23 12:09:05;;;;;;;23.38;9.70;;;;;;;8.65;100.00;100039.63;5264836;28;20393;-68
2022/12/23 12:11:44;;;;;;;23.33;10.20;;;;;;;8.62;100.00;100017.16;5264452;28;20135;-68
2022/12/23 12:14:23;;;;;;;24.38;10.98;;;;;;;8.68;100.00;100004.06;5264687;28;20048;-68
2022/12/23 12:17:13;;;;;;;19.42;9.52;;;;;;;8.72;100.00;99999.66;5264452;28;20029;-68
2022/12/23 12:20:26;;;;;;;18.25;8.93;;;;;;;8.76;100.00;100009.97;5265005;28;20470;-68